sensor_id;sensor_type;location;lat;lon;timestamp;pressure;altitude;pressure_sealevel;temperature;humidity
18765;BME280;9511;54.242;12.448;2023-03-08T04:05:28;99528.06;;;-1.63;95.77
18765;BME280;9511;54.242;12.448;2023-03-08T04:07:56;99533.31;;;-1.62;95.35
18765;BME280;9511;54.242;12.448;2023-03-08T04:10:27;99543.47;;;-1.66;96.19
18765;BME280;9511;54.242;12.448;2023-03-08T04:12:57;99535.69;;;-1.66;95.98
18765;BME280;9511;54.242;12.448;2023-03-08T04:15:25;99546.22;;;-1.63;95.90
18765;BME280;9511;54.242;12.448;2023-03-08T04:17:53;99551.38;;;-1.63;96.49
18765;BME280;9511;54.242;12.448;2023-03-08T04:20:23;99548.97;;;-1.60;96.21
18765;BME280;9511;54.242;12.448;2023-03-08T04:22:56;99556.00;;;-1.57;96.30
18765;BME280;9511;54.242;12.448;2023-03-08T04:25:30;99541.75;;;-1.49;96.59
18765;BME280;9511;54.242;12.448;2023-03-08T04:27:59;99545.00;;;-1.53;96.34
18765;BME280;9511;54.242;12.448;2023-03-08T04:30:27;99548.31;;;-1.56;96.50
18765;BME280;9511;54.242;12.448;2023-03-08T04:32:56;99551.06;;;-1.53;96.96
18765;BME280;9511;54.242;12.448;2023-03-08T04:35:29;99540.63;;;-1.54;96.29
18765;BME280;9511;54.242;12.448;2023-03-08T04:37:58;99548.09;;;-1.61;96.27
18765;BME280;9511;54.242;12.448;2023-03-08T04:40:27;99541.97;;;-1.61;96.40
18765;BME280;9511;54.242;12.448;2023-03-08T04:42:58;99550.25;;;-1.52;96.71
18765;BME280;9511;54.242;12.448;2023-03-08T04:45:34;99542.31;;;-1.55;96.93
18765;BME280;9511;54.242;12.448;2023-03-08T04:48:06;99550.50;;;-1.64;96.81
18765;BME280;9511;54.242;12.448;2023-03-08T04:50:34;99547.72;;;-1.67;96.71
18765;BME280;9511;54.242;12.448;2023-03-08T04:53:03;99542.53;;;-1.67;96.96
18765;BME280;9511;54.242;12.448;2023-03-08T04:55:31;99541.75;;;-1.66;97.45
18765;BME280;9511;54.242;12.448;2023-03-08T04:57:59;99541.91;;;-1.63;97.52
18765;BME280;9511;54.242;12.448;2023-03-08T05:00:28;99545.13;;;-1.67;97.63
18765;BME280;9511;54.242;12.448;2023-03-08T05:02:56;99534.88;;;-1.65;98.16
18765;BME280;9511;54.242;12.448;2023-03-08T05:05:24;99536.72;;;-1.63;97.99
18765;BME280;9511;54.242;12.448;2023-03-08T05:07:53;99539.38;;;-1.61;97.76
18765;BME280;9511;54.242;12.448;2023-03-08T05:10:22;99556.44;;;-1.66;97.50
18765;BME280;9511;54.242;12.448;2023-03-08T05:12:49;99558.22;;;-1.65;98.41
18765;BME280;9511;54.242;12.448;2023-03-08T05:15:17;99561.44;;;-1.69;98.42
18765;BME280;9511;54.242;12.448;2023-03-08T05:17:45;99558.78;;;-1.71;98.86
18765;BME280;9511;54.242;12.448;2023-03-08T05:20:12;99559.47;;;-1.73;98.65
18765;BME280;9511;54.242;12.448;2023-03-08T05:22:41;99547.50;;;-1.71;98.79
18765;BME280;9511;54.242;12.448;2023-03-08T05:25:09;99556.06;;;-1.72;99.15
18765;BME280;9511;54.242;12.448;2023-03-08T05:27:38;99557.88;;;-1.71;99.42
18765;BME280;9511;54.242;12.448;2023-03-08T05:30:08;99561.25;;;-1.72;99.58
18765;BME280;9511;54.242;12.448;2023-03-08T05:32:36;99564.66;;;-1.73;99.30
18765;BME280;9511;54.242;12.448;2023-03-08T05:35:04;99569.84;;;-1.73;99.72
18765;BME280;9511;54.242;12.448;2023-03-08T05:37:34;99569.03;;;-1.72;100.00
18765;BME280;9511;54.242;12.448;2023-03-08T05:40:04;99573.59;;;-1.68;99.86
18765;BME280;9511;54.242;12.448;2023-03-08T05:42:34;99570.03;;;-1.70;100.00
18765;BME280;9511;54.242;12.448;2023-03-08T05:45:04;99564.66;;;-1.73;100.00
18765;BME280;9511;54.242;12.448;2023-03-08T05:47:35;99569.94;;;-1.72;100.00
18765;BME280;9511;54.242;12.448;2023-03-08T05:50:03;99571.81;;;-1.69;100.00
18765;BME280;9511;54.242;12.448;2023-03-08T05:52:34;99569.22;;;-1.69;100.00
18765;BME280;9511;54.242;12.448;2023-03-08T05:55:02;99572.88;;;-1.66;100.00
18765;BME280;9511;54.242;12.448;2023-03-08T05:57:29;99575.63;;;-1.63;100.00
18765;BME280;9511;54.242;12.448;2023-03-08T05:59:57;99576.50;;;-1.62;100.00
18765;BME280;9511;54.242;12.448;2023-03-08T06:02:27;99584.38;;;-1.61;100.00
18765;BME280;9511;54.242;12.448;2023-03-08T06:04:54;99576.75;;;-1.57;100.00
18765;BME280;9511;54.242;12.448;2023-03-08T06:07:24;99579.53;;;-1.54;100.00
18765;BME280;9511;54.242;12.448;2023-03-08T06:09:56;99578.78;;;-1.52;100.00
18765;BME280;9511;54.242;12.448;2023-03-08T06:12:23;99578.22;;;-1.46;100.00
18765;BME280;9511;54.242;12.448;2023-03-08T06:14:54;99586.00;;;-1.46;100.00
18765;BME280;9511;54.242;12.448;2023-03-08T06:17:26;99578.63;;;-1.39;100.00
18765;BME280;9511;54.242;12.448;2023-03-08T06:19:55;99579.38;;;-1.25;100.00
18765;BME280;9511;54.242;12.448;2023-03-08T06:22:22;99583.63;;;-1.09;100.00
18765;BME280;9511;54.242;12.448;2023-03-08T06:24:50;99583.13;;;-0.86;100.00
18765;BME280;9511;54.242;12.448;2023-03-08T06:27:25;99584.75;;;-0.88;100.00
18765;BME280;9511;54.242;12.448;2023-03-08T06:29:54;99590.94;;;-0.86;100.00
18765;BME280;9511;54.242;12.448;2023-03-08T06:32:22;99578.91;;;-0.84;100.00
18765;BME280;9511;54.242;12.448;2023-03-08T06:34:52;99590.41;;;-0.78;100.00
18765;BME280;9511;54.242;12.448;2023-03-08T06:37:19;99593.34;;;-0.89;100.00
18765;BME280;9511;54.242;12.448;2023-03-08T06:39:47;99595.94;;;-0.89;100.00
18765;BME280;9511;54.242;12.448;2023-03-08T06:42:14;99594.59;;;-0.64;100.00
18765;BME280;9511;54.242;12.448;2023-03-08T06:44:41;99593.09;;;-0.77;100.00
18765;BME280;9511;54.242;12.448;2023-03-08T06:47:09;99592.38;;;-0.91;100.00
18765;BME280;9511;54.242;12.448;2023-03-08T06:49:36;99598.84;;;-0.83;100.00
18765;BME280;9511;54.242;12.448;2023-03-08T06:52:05;99598.47;;;-1.07;100.00
18765;BME280;9511;54.242;12.448;2023-03-08T06:54:33;99606.19;;;-1.08;100.00
18765;BME280;9511;54.242;12.448;2023-03-08T06:57:03;99600.50;;;-1.17;100.00
18765;BME280;9511;54.242;12.448;2023-03-08T06:59:30;99598.88;;;-1.15;100.00
18765;BME280;9511;54.242;12.448;2023-03-08T07:01:58;99607.16;;;-1.22;100.00
18765;BME280;9511;54.242;12.448;2023-03-08T07:04:25;99602.59;;;-1.26;100.00
18765;BME280;9511;54.242;12.448;2023-03-08T07:06:52;99608.53;;;-1.29;100.00
18765;BME280;9511;54.242;12.448;2023-03-08T07:09:21;99604.31;;;-1.27;100.00
18765;BME280;9511;54.242;12.448;2023-03-08T07:11:48;99611.78;;;-1.33;100.00
18765;BME280;9511;54.242;12.448;2023-03-08T07:14:16;99613.47;;;-1.34;100.00
18765;BME280;9511;54.242;12.448;2023-03-08T07:16:43;99615.44;;;-1.29;100.00
18765;BME280;9511;54.242;12.448;2023-03-08T07:19:12;99612.41;;;-1.21;100.00
18765;BME280;9511;54.242;12.448;2023-03-08T07:21:39;99606.34;;;-1.21;100.00
18765;BME280;9511;54.242;12.448;2023-03-08T07:24:09;99616.09;;;-1.17;100.00
18765;BME280;9511;54.242;12.448;2023-03-08T07:26:38;99611.38;;;-1.08;100.00
18765;BME280;9511;54.242;12.448;2023-03-08T07:29:05;99615.44;;;-1.13;100.00
18765;BME280;9511;54.242;12.448;2023-03-08T07:31:33;99618.19;;;-1.10;100.00
18765;BME280;9511;54.242;12.448;2023-03-08T07:34:01;99610.25;;;-1.13;100.00
18765;BME280;9511;54.242;12.448;2023-03-08T07:36:28;99613.72;;;-1.13;100.00
18765;BME280;9511;54.242;12.448;2023-03-08T07:38:55;99613.88;;;-1.10;100.00
18765;BME280;9511;54.242;12.448;2023-03-08T07:41:23;99617.53;;;-1.06;100.00
18765;BME280;9511;54.242;12.448;2023-03-08T07:43:51;99618.59;;;-1.02;100.00
18765;BME280;9511;54.242;12.448;2023-03-08T07:46:20;99619.88;;;-0.94;100.00
18765;BME280;9511;54.242;12.448;2023-03-08T07:48:47;99620.63;;;-0.97;100.00
18765;BME280;9511;54.242;12.448;2023-03-08T07:51:14;99620.38;;;-1.01;100.00
18765;BME280;9511;54.242;12.448;2023-03-08T07:53:41;99618.69;;;-1.01;100.00
18765;BME280;9511;54.242;12.448;2023-03-08T07:56:08;99612.72;;;-0.98;100.00
18765;BME280;9511;54.242;12.448;2023-03-08T07:58:36;99609.88;;;-0.87;100.00
18765;BME280;9511;54.242;12.448;2023-03-08T08:01:08;99607.53;;;-0.82;100.00
18765;BME280;9511;54.242;12.448;2023-03-08T08:03:36;99607.78;;;-0.77;99.71
18765;BME280;9511;54.242;12.448;2023-03-08T08:06:04;99596.69;;;-0.57;100.00
18765;BME280;9511;54.242;12.448;2023-03-08T08:08:32;99606.81;;;-0.45;99.69
18765;BME280;9511;54.242;12.448;2023-03-08T08:10:59;99604.34;;;-0.42;98.99
18765;BME280;9511;54.242;12.448;2023-03-08T08:13:27;99614.22;;;-0.35;98.67
18765;BME280;9511;54.242;12.448;2023-03-08T08:15:58;99602.59;;;-0.08;97.79
18765;BME280;9511;54.242;12.448;2023-03-08T08:18:26;99605.78;;;-0.13;96.52
18765;BME280;9511;54.242;12.448;2023-03-08T08:21:00;99609.19;;;0.21;96.61
18765;BME280;9511;54.242;12.448;2023-03-08T08:23:28;99620.19;;;-0.02;95.88
18765;BME280;9511;54.242;12.448;2023-03-08T08:25:55;99616.47;;;-0.07;95.75
18765;BME280;9511;54.242;12.448;2023-03-08T08:28:23;99619.28;;;0.15;94.80
18765;BME280;9511;54.242;12.448;2023-03-08T08:30:55;99636.81;;;0.19;94.66
18765;BME280;9511;54.242;12.448;2023-03-08T08:33:22;99622.41;;;0.26;93.94
18765;BME280;9511;54.242;12.448;2023-03-08T08:35:51;99638.94;;;0.46;93.57
18765;BME280;9511;54.242;12.448;2023-03-08T08:38:18;99626.25;;;0.52;93.07
18765;BME280;9511;54.242;12.448;2023-03-08T08:40:46;99631.72;;;0.58;92.20
18765;BME280;9511;54.242;12.448;2023-03-08T08:43:13;99634.09;;;0.53;91.68
18765;BME280;9511;54.242;12.448;2023-03-08T08:45:42;99642.59;;;0.69;91.92
18765;BME280;9511;54.242;12.448;2023-03-08T08:48:10;99633.84;;;0.30;91.05
18765;BME280;9511;54.242;12.448;2023-03-08T08:50:38;99645.22;;;0.32;91.61
18765;BME280;9511;54.242;12.448;2023-03-08T08:53:07;99641.56;;;0.28;91.25
18765;BME280;9511;54.242;12.448;2023-03-08T08:55:35;99647.88;;;0.15;90.82
18765;BME280;9511;54.242;12.448;2023-03-08T08:58:03;99643.06;;;0.41;90.99
18765;BME280;9511;54.242;12.448;2023-03-08T09:00:32;99643.41;;;0.48;91.55
18765;BME280;9511;54.242;12.448;2023-03-08T09:03:00;99647.88;;;0.33;90.88
18765;BME280;9511;54.242;12.448;2023-03-08T09:05:28;99645.13;;;0.48;91.00
18765;BME280;9511;54.242;12.448;2023-03-08T09:07:57;99642.13;;;0.58;90.78
18765;BME280;9511;54.242;12.448;2023-03-08T09:10:27;99639.72;;;0.63;90.15
18765;BME280;9511;54.242;12.448;2023-03-08T09:12:56;99641.53;;;0.46;89.89
18765;BME280;9511;54.242;12.448;2023-03-08T09:15:25;99635.66;;;0.50;89.66
18765;BME280;9511;54.242;12.448;2023-03-08T09:17:53;99653.88;;;0.50;89.86
18765;BME280;9511;54.242;12.448;2023-03-08T09:20:20;99643.06;;;0.41;89.22
18765;BME280;9511;54.242;12.448;2023-03-08T09:22:48;99646.75;;;0.46;89.23
18765;BME280;9511;54.242;12.448;2023-03-08T09:25:15;99643.06;;;0.41;89.01
18765;BME280;9511;54.242;12.448;2023-03-08T09:27:47;99636.81;;;0.19;89.64
18765;BME280;9511;54.242;12.448;2023-03-08T09:30:16;99647.53;;;0.25;89.90
18765;BME280;9511;54.242;12.448;2023-03-08T09:32:43;99641.25;;;0.40;89.71
18765;BME280;9511;54.242;12.448;2023-03-08T09:35:10;99646.03;;;0.31;89.28
18765;BME280;9511;54.242;12.448;2023-03-08T09:37:40;99639.34;;;0.36;89.46
18765;BME280;9511;54.242;12.448;2023-03-08T09:40:17;99641.63;;;0.47;89.71
18765;BME280;9511;54.242;12.448;2023-03-08T09:42:47;99640.03;;;0.51;89.25
18765;BME280;9511;54.242;12.448;2023-03-08T09:45:19;99635.47;;;0.28;89.14
18765;BME280;9511;54.242;12.448;2023-03-08T09:47:53;99639.16;;;0.50;89.23
18765;BME280;9511;54.242;12.448;2023-03-08T09:50:31;99650.28;;;0.85;89.49
18765;BME280;9511;54.242;12.448;2023-03-08T09:53:05;99641.75;;;0.88;88.88
18765;BME280;9511;54.242;12.448;2023-03-08T09:55:43;99639.28;;;0.71;87.88
18765;BME280;9511;54.242;12.448;2023-03-08T09:58:19;99639.53;;;0.77;88.22
18765;BME280;9511;54.242;12.448;2023-03-08T10:00:49;99635.44;;;0.83;88.10
18765;BME280;9511;54.242;12.448;2023-03-08T10:06:25;99624.47;;;0.90;87.26
18765;BME280;9511;54.242;12.448;2023-03-08T10:09:01;99631.47;;;0.91;86.85
18765;BME280;9511;54.242;12.448;2023-03-08T10:11:37;99636.94;;;0.77;86.74
18765;BME280;9511;54.242;12.448;2023-03-08T10:14:15;99634.41;;;0.60;87.29
18765;BME280;9511;54.242;12.448;2023-03-08T10:16:46;99639.88;;;0.85;87.76
18765;BME280;9511;54.242;12.448;2023-03-08T10:19:19;99637.09;;;1.00;87.65
18765;BME280;9511;54.242;12.448;2023-03-08T10:21:50;99636.75;;;0.92;87.50
18765;BME280;9511;54.242;12.448;2023-03-08T10:24:20;99644.19;;;0.85;87.35
18765;BME280;9511;54.242;12.448;2023-03-08T10:26:52;99634.34;;;0.97;87.44
18765;BME280;9511;54.242;12.448;2023-03-08T10:29:21;99632.16;;;0.87;86.66
18765;BME280;9511;54.242;12.448;2023-03-08T10:31:48;99627.03;;;0.88;85.93
18765;BME280;9511;54.242;12.448;2023-03-08T10:34:18;99625.31;;;0.69;85.78
18765;BME280;9511;54.242;12.448;2023-03-08T10:36:49;99624.25;;;0.66;86.15
18765;BME280;9511;54.242;12.448;2023-03-08T10:39:17;99622.22;;;0.78;86.16
18765;BME280;9511;54.242;12.448;2023-03-08T10:41:47;99625.13;;;1.03;86.01
18765;BME280;9511;54.242;12.448;2023-03-08T10:44:29;99616.53;;;1.06;85.01
18765;BME280;9511;54.242;12.448;2023-03-08T10:46:58;99616.47;;;1.04;84.89
18765;BME280;9511;54.242;12.448;2023-03-08T10:49:28;99616.25;;;1.00;84.52
18765;BME280;9511;54.242;12.448;2023-03-08T10:51:56;99627.41;;;0.97;84.51
18765;BME280;9511;54.242;12.448;2023-03-08T10:54:24;99628.84;;;0.91;84.65
18765;BME280;9511;54.242;12.448;2023-03-08T10:56:55;99627.25;;;0.93;85.04
18765;BME280;9511;54.242;12.448;2023-03-08T10:59:28;99625.16;;;0.86;84.93
18765;BME280;9511;54.242;12.448;2023-03-08T11:01:59;99624.53;;;0.91;85.16
18765;BME280;9511;54.242;12.448;2023-03-08T11:04:28;99625.28;;;1.08;85.37
18765;BME280;9511;54.242;12.448;2023-03-08T11:06:56;99622.69;;;1.08;84.75
18765;BME280;9511;54.242;12.448;2023-03-08T11:09:25;99630.09;;;1.18;84.66
18765;BME280;9511;54.242;12.448;2023-03-08T11:11:53;99624.19;;;1.03;84.30
18765;BME280;9511;54.242;12.448;2023-03-08T11:14:21;99630.13;;;0.99;84.37
18765;BME280;9511;54.242;12.448;2023-03-08T11:16:59;99625.25;;;0.87;83.70
18765;BME280;9511;54.242;12.448;2023-03-08T11:19:44;99640.84;;;1.06;82.91
18765;BME280;9511;54.242;12.448;2023-03-08T11:22:22;99628.25;;;1.16;82.60
18765;BME280;9511;54.242;12.448;2023-03-08T11:25:16;99628.59;;;1.04;81.98
18765;BME280;9511;54.242;12.448;2023-03-08T11:27:58;99616.38;;;1.03;81.75
18765;BME280;9511;54.242;12.448;2023-03-08T11:30:37;99612.00;;;1.21;81.76
18765;BME280;9511;54.242;12.448;2023-03-08T11:36:05;99608.88;;;1.09;81.12
18765;BME280;9511;54.242;12.448;2023-03-08T11:38:36;99617.91;;;1.17;81.16
18765;BME280;9511;54.242;12.448;2023-03-08T11:41:11;99621.59;;;1.22;80.80
18765;BME280;9511;54.242;12.448;2023-03-08T11:43:56;99610.81;;;1.15;81.10
18765;BME280;9511;54.242;12.448;2023-03-08T11:46:35;99613.91;;;1.25;81.00
18765;BME280;9511;54.242;12.448;2023-03-08T11:49:29;99613.53;;;1.37;81.06
18765;BME280;9511;54.242;12.448;2023-03-08T11:52:04;99614.03;;;1.28;81.01
18765;BME280;9511;54.242;12.448;2023-03-08T11:54:46;99607.13;;;1.29;80.66
18765;BME280;9511;54.242;12.448;2023-03-08T11:57:17;99605.81;;;1.39;80.79
18765;BME280;9511;54.242;12.448;2023-03-08T11:59:48;99610.06;;;1.57;80.97
18765;BME280;9511;54.242;12.448;2023-03-08T12:02:19;99604.81;;;1.56;80.38
18765;BME280;9511;54.242;12.448;2023-03-08T12:04:56;99604.56;;;1.50;79.64
18765;BME280;9511;54.242;12.448;2023-03-08T12:07:27;99599.44;;;1.53;79.52
18765;BME280;9511;54.242;12.448;2023-03-08T12:10:01;99603.84;;;1.54;79.79
18765;BME280;9511;54.242;12.448;2023-03-08T12:12:31;99598.78;;;1.38;79.49
18765;BME280;9511;54.242;12.448;2023-03-08T12:15:05;99599.44;;;1.53;79.89
18765;BME280;9511;54.242;12.448;2023-03-08T12:17:37;99595.50;;;1.42;79.70
18765;BME280;9511;54.242;12.448;2023-03-08T12:20:12;99597.69;;;1.52;79.79
18765;BME280;9511;54.242;12.448;2023-03-08T12:22:45;99592.28;;;1.68;79.92
18765;BME280;9511;54.242;12.448;2023-03-08T12:25:22;99594.75;;;1.65;79.62
18765;BME280;9511;54.242;12.448;2023-03-08T12:27:54;99588.59;;;1.63;79.13
18765;BME280;9511;54.242;12.448;2023-03-08T12:30:32;99597.53;;;1.49;78.96
18765;BME280;9511;54.242;12.448;2023-03-08T12:33:03;99596.41;;;1.63;78.76
18765;BME280;9511;54.242;12.448;2023-03-08T12:35:34;99599.44;;;1.53;78.81
18765;BME280;9511;54.242;12.448;2023-03-08T12:38:03;99592.88;;;1.61;79.01
18765;BME280;9511;54.242;12.448;2023-03-08T12:40:38;99588.59;;;1.63;78.79
18765;BME280;9511;54.242;12.448;2023-03-08T12:43:09;99587.69;;;1.63;78.69
18765;BME280;9511;54.242;12.448;2023-03-08T12:45:37;99585.72;;;1.57;78.52
18765;BME280;9511;54.242;12.448;2023-03-08T12:48:16;99592.47;;;1.52;78.69
18765;BME280;9511;54.242;12.448;2023-03-08T12:50:55;99590.97;;;1.38;78.57
18765;BME280;9511;54.242;12.448;2023-03-08T12:53:28;99594.75;;;1.44;78.73
18765;BME280;9511;54.242;12.448;2023-03-08T12:56:02;99597.00;;;1.56;78.79
18765;BME280;9511;54.242;12.448;2023-03-08T12:58:32;99591.31;;;1.66;78.52
18765;BME280;9511;54.242;12.448;2023-03-08T13:01:02;99586.44;;;1.74;78.56
18765;BME280;9511;54.242;12.448;2023-03-08T13:03:36;99588.50;;;1.82;78.43
18765;BME280;9511;54.242;12.448;2023-03-08T13:09:19;99579.22;;;1.89;78.11
18765;BME280;9511;54.242;12.448;2023-03-08T13:11:52;99590.75;;;1.73;77.92
18765;BME280;9511;54.242;12.448;2023-03-08T13:14:25;99586.63;;;1.78;78.18
18765;BME280;9511;54.242;12.448;2023-03-08T13:16:53;99585.41;;;1.70;77.85
18765;BME280;9511;54.242;12.448;2023-03-08T13:19:24;99588.25;;;1.76;78.30
18765;BME280;9511;54.242;12.448;2023-03-08T13:21:59;99594.44;;;1.78;77.99
18765;BME280;9511;54.242;12.448;2023-03-08T13:24:37;99591.00;;;1.79;77.99
18765;BME280;9511;54.242;12.448;2023-03-08T13:27:15;99594.88;;;1.68;77.79
18765;BME280;9511;54.242;12.448;2023-03-08T13:29:45;99592.34;;;1.70;78.46
18765;BME280;9511;54.242;12.448;2023-03-08T13:32:15;99599.41;;;1.72;78.75
18765;BME280;9511;54.242;12.448;2023-03-08T13:34:43;99594.84;;;1.67;78.38
18765;BME280;9511;54.242;12.448;2023-03-08T13:37:23;99596.66;;;1.69;78.38
18765;BME280;9511;54.242;12.448;2023-03-08T13:39:51;99594.00;;;1.68;78.13
18765;BME280;9511;54.242;12.448;2023-03-08T13:42:22;99588.59;;;1.63;78.25
18765;BME280;9511;54.242;12.448;2023-03-08T13:44:50;99585.28;;;1.67;78.01
18765;BME280;9511;54.242;12.448;2023-03-08T13:47:23;99593.63;;;1.79;78.31
18765;BME280;9511;54.242;12.448;2023-03-08T13:49:53;99597.59;;;1.71;78.32
18765;BME280;9511;54.242;12.448;2023-03-08T13:52:27;99596.53;;;1.66;78.61
18765;BME280;9511;54.242;12.448;2023-03-08T13:54:58;99596.53;;;1.66;78.44
18765;BME280;9511;54.242;12.448;2023-03-08T13:57:27;99600.09;;;1.68;78.58
18765;BME280;9511;54.242;12.448;2023-03-08T13:59:57;99597.94;;;1.79;78.47
18765;BME280;9511;54.242;12.448;2023-03-08T14:02:27;99600.47;;;1.77;78.35
18765;BME280;9511;54.242;12.448;2023-03-08T14:04:54;99595.38;;;1.80;78.23
18765;BME280;9511;54.242;12.448;2023-03-08T14:07:24;99595.00;;;1.71;78.18
18765;BME280;9511;54.242;12.448;2023-03-08T14:09:53;99599.97;;;1.65;78.09
18765;BME280;9511;54.242;12.448;2023-03-08T14:12:21;99591.44;;;1.69;78.32
18765;BME280;9511;54.242;12.448;2023-03-08T14:14:51;99605.16;;;1.65;78.24
18765;BME280;9511;54.242;12.448;2023-03-08T14:17:22;99608.38;;;1.79;78.46
18765;BME280;9511;54.242;12.448;2023-03-08T14:19:54;99599.53;;;1.75;78.08
18765;BME280;9511;54.242;12.448;2023-03-08T14:22:25;99594.06;;;1.69;78.08
18765;BME280;9511;54.242;12.448;2023-03-08T14:24:54;99588.97;;;1.72;78.02
18765;BME280;9511;54.242;12.448;2023-03-08T14:27:31;99589.94;;;1.74;77.69
18765;BME280;9511;54.242;12.448;2023-03-08T14:30:00;99590.88;;;1.76;77.48
18765;BME280;9511;54.242;12.448;2023-03-08T14:32:30;99589.03;;;1.74;77.29
18765;BME280;9511;54.242;12.448;2023-03-08T14:35:05;99582.69;;;1.67;77.42
18765;BME280;9511;54.242;12.448;2023-03-08T14:37:34;99581.53;;;1.81;77.36
18765;BME280;9511;54.242;12.448;2023-03-08T14:40:20;99579.50;;;1.74;76.88
18765;BME280;9511;54.242;12.448;2023-03-08T14:42:50;99582.34;;;1.80;76.83
18765;BME280;9511;54.242;12.448;2023-03-08T14:45:21;99583.03;;;1.76;76.99
18765;BME280;9511;54.242;12.448;2023-03-08T14:47:50;99574.28;;;1.74;77.20
18765;BME280;9511;54.242;12.448;2023-03-08T14:50:21;99569.44;;;1.83;77.33
18765;BME280;9511;54.242;12.448;2023-03-08T14:52:51;99566.81;;;1.83;77.70
18765;BME280;9511;54.242;12.448;2023-03-08T14:55:21;99573.00;;;1.85;77.47
18765;BME280;9511;54.242;12.448;2023-03-08T14:57:50;99575.41;;;1.81;77.60
18765;BME280;9511;54.242;12.448;2023-03-08T15:00:19;99577.84;;;1.76;77.57
18765;BME280;9511;54.242;12.448;2023-03-08T15:02:47;99575.81;;;1.69;77.74
18765;BME280;9511;54.242;12.448;2023-03-08T15:05:16;99577.09;;;1.79;77.86
18765;BME280;9511;54.242;12.448;2023-03-08T15:07:44;99574.03;;;1.68;77.55
18765;BME280;9511;54.242;12.448;2023-03-08T15:10:20;99570.34;;;1.63;78.15
18765;BME280;9511;54.242;12.448;2023-03-08T15:12:48;99562.03;;;1.51;77.89
18765;BME280;9511;54.242;12.448;2023-03-08T15:15:16;99565.25;;;1.45;77.95
18765;BME280;9511;54.242;12.448;2023-03-08T15:17:43;99566.41;;;1.52;78.29
18765;BME280;9511;54.242;12.448;2023-03-08T15:20:11;99554.47;;;1.57;78.57
18765;BME280;9511;54.242;12.448;2023-03-08T15:22:42;99558.97;;;1.61;78.72
18765;BME280;9511;54.242;12.448;2023-03-08T15:25:17;99552.59;;;1.54;78.69
18765;BME280;9511;54.242;12.448;2023-03-08T15:27:45;99560.16;;;1.48;78.67
18765;BME280;9511;54.242;12.448;2023-03-08T15:30:17;99545.31;;;1.46;79.23
18765;BME280;9511;54.242;12.448;2023-03-08T15:32:45;99551.22;;;1.42;79.63
18765;BME280;9511;54.242;12.448;2023-03-08T15:35:13;99557.75;;;1.53;79.76
18765;BME280;9511;54.242;12.448;2023-03-08T15:37:41;99549.00;;;1.51;79.44
18765;BME280;9511;54.242;12.448;2023-03-08T15:40:12;99557.00;;;1.55;79.42
18765;BME280;9511;54.242;12.448;2023-03-08T15:42:42;99557.66;;;1.50;79.43
18765;BME280;9511;54.242;12.448;2023-03-08T15:45:13;99549.09;;;1.54;79.19
18765;BME280;9511;54.242;12.448;2023-03-08T15:47:41;99555.41;;;1.59;79.73
18765;BME280;9511;54.242;12.448;2023-03-08T15:50:13;99559.78;;;1.60;79.46
18765;BME280;9511;54.242;12.448;2023-03-08T15:52:41;99554.41;;;1.55;79.52
18765;BME280;9511;54.242;12.448;2023-03-08T15:55:10;99551.03;;;1.58;79.52
18765;BME280;9511;54.242;12.448;2023-03-08T15:57:38;99550.00;;;1.54;79.79
18765;BME280;9511;54.242;12.448;2023-03-08T16:00:09;99562.84;;;1.50;79.81
18765;BME280;9511;54.242;12.448;2023-03-08T16:02:38;99561.88;;;1.48;79.91
18765;BME280;9511;54.242;12.448;2023-03-08T16:05:07;99555.72;;;1.46;79.88
18765;BME280;9511;54.242;12.448;2023-03-08T16:07:35;99556.38;;;1.40;79.75
18765;BME280;9511;54.242;12.448;2023-03-08T16:10:04;99572.56;;;1.33;80.15
18765;BME280;9511;54.242;12.448;2023-03-08T16:12:32;99565.38;;;1.27;80.11
18765;BME280;9511;54.242;12.448;2023-03-08T16:14:59;99569.94;;;1.12;79.98
18765;BME280;9511;54.242;12.448;2023-03-08T16:17:29;99568.25;;;1.14;79.96
18765;BME280;9511;54.242;12.448;2023-03-08T16:19:57;99566.22;;;1.07;80.26
18765;BME280;9511;54.242;12.448;2023-03-08T16:22:24;99574.59;;;1.00;80.25
18765;BME280;9511;54.242;12.448;2023-03-08T16:24:52;99568.09;;;0.90;80.46
18765;BME280;9511;54.242;12.448;2023-03-08T16:27:19;99577.22;;;0.81;80.55
18765;BME280;9511;54.242;12.448;2023-03-08T16:29:49;99577.53;;;0.69;81.30
18765;BME280;9511;54.242;12.448;2023-03-08T16:32:17;99580.78;;;0.63;81.41
18765;BME280;9511;54.242;12.448;2023-03-08T16:34:47;99573.72;;;0.61;81.42
18765;BME280;9511;54.242;12.448;2023-03-08T16:37:17;99576.81;;;0.52;81.73
18765;BME280;9511;54.242;12.448;2023-03-08T16:39:44;99571.13;;;0.41;82.30
18765;BME280;9511;54.242;12.448;2023-03-08T16:42:12;99576.69;;;0.31;82.63
18765;BME280;9511;54.242;12.448;2023-03-08T16:44:40;99571.22;;;0.25;82.54
18765;BME280;9511;54.242;12.448;2023-03-08T16:47:07;99569.06;;;0.16;83.05
18765;BME280;9511;54.242;12.448;2023-03-08T16:49:34;99573.97;;;0.10;83.66
18765;BME280;9511;54.242;12.448;2023-03-08T16:52:03;99570.97;;;0.01;83.73
18765;BME280;9511;54.242;12.448;2023-03-08T16:54:31;99577.25;;;-0.12;83.69
18765;BME280;9511;54.242;12.448;2023-03-08T16:56:58;99576.06;;;-0.18;84.21
18765;BME280;9511;54.242;12.448;2023-03-08T16:59:25;99580.84;;;-0.28;84.88
18765;BME280;9511;54.242;12.448;2023-03-08T17:01:52;99575.41;;;-0.32;85.24
18765;BME280;9511;54.242;12.448;2023-03-08T17:04:20;99576.84;;;-0.39;85.25
18765;BME280;9511;54.242;12.448;2023-03-08T17:06:48;99580.53;;;-0.51;85.45
18765;BME280;9511;54.242;12.448;2023-03-08T17:09:17;99587.19;;;-0.57;85.57
18765;BME280;9511;54.242;12.448;2023-03-08T17:11:44;99576.81;;;-0.57;86.12
18765;BME280;9511;54.242;12.448;2023-03-08T17:14:12;99581.84;;;-0.60;86.63
18765;BME280;9511;54.242;12.448;2023-03-08T17:16:40;99584.06;;;-0.67;86.71
18765;BME280;9511;54.242;12.448;2023-03-08T17:19:10;99584.72;;;-0.71;87.01
18765;BME280;9511;54.242;12.448;2023-03-08T17:21:38;99583.50;;;-0.78;86.85
18765;BME280;9511;54.242;12.448;2023-03-08T17:24:07;99591.63;;;-0.72;87.21
18765;BME280;9511;54.242;12.448;2023-03-08T17:26:40;99588.19;;;-0.71;87.33
18765;BME280;9511;54.242;12.448;2023-03-08T17:29:07;99585.84;;;-0.66;87.86
18765;BME280;9511;54.242;12.448;2023-03-08T17:31:35;99586.16;;;-0.60;88.70
18765;BME280;9511;54.242;12.448;2023-03-08T17:34:02;99580.06;;;-0.61;89.27